• Join FlightAware (Why Join?)
  • Login
  • US Flag 
07:29PM EDT


 

Airport Tracker/Info


-or-


 

Live Flight TrackerFlight Track Log ✈ AAR8737 ✈ 23-Jun-2013 ✈ RKSS / GMP - RKJY / RSU

Flight Track Log - Related Links

Times and Time Zones

All times are in EDT time to prevent confusion due to time zone crossing. See the AAR8737 flight status page for this flight to view local times or setup timezone preferences in your user account.

Time Position Orientation Groundspeed Altitude Reporting Facility
EDT Latitude Longitude Course Direction KTS MPH feet Rate Location/Type
04:42AM 37.3315 126.8617 166° South  Level Estimated
04:43AM 37.2559 126.8853 166° South  Level Estimated
04:43AM 37.5110 126.6770 166° South 8,100  Level FlightAware
04:43AM 37.4790 126.6840 170° South 9,100 1,740 Climbing FlightAware
04:44AM 37.4310 126.6930 172° South 10,600 1,680 Climbing FlightAware
04:44AM 37.3580 126.7060 172° South 11,800 1,560 Climbing FlightAware
04:45AM 37.2770 126.7220 171° South 12,700 1,560 Climbing FlightAware
04:46AM 37.2070 126.7350 172° South 14,100 1,680 Climbing FlightAware
04:47AM 37.0800 126.7590 171° South 383 441 16,000 1,620 Climbing FlightAware
04:48AM 37.0270 126.7680 172° South 383 441 17,000 720 Climbing FlightAware
04:48AM 36.9550 126.7810 172° South 383 441 17,000 1,920 Level FlightAware
04:49AM 36.8270 126.8060 171° South 416 479 20,000 2,520 Climbing FlightAware
04:50AM 36.7870 126.8140 171° South 416 479 20,000  Level FlightAware
04:51AM 36.6060 126.8490 171° South 416 479 20,000  Level FlightAware
04:52AM 36.5070 126.8690 171° South 416 479 20,000  Level FlightAware
04:53AM 36.4520 126.8800 171° South 416 479 20,000  Level FlightAware
04:56AM 36.2659 126.9665 159° South  Level Estimated
04:57AM 36.1930 127.0003 159° South  Level Estimated
04:58AM 36.1200 127.0341 160° South  Level Estimated
04:59AM 36.0470 127.0677 160° South  Level Estimated
05:00AM 35.9740 127.1014 160° South  Level Estimated
05:01AM 35.9009 127.1349 160° South  Level Estimated
05:02AM 35.8279 127.1684 160° South  Level Estimated
05:03AM 35.7549 127.2019 160° South  Level Estimated
05:04AM 35.6818 127.2352 160° South  Level Estimated
05:05AM 35.6088 127.2685 160° South  Level Estimated
05:06AM 35.5357 127.3018 160° South  Level Estimated
05:07AM 35.4626 127.3350 160° South  Level Estimated
05:08AM 35.3895 127.3681 160° South  Level Estimated
05:09AM 35.3165 127.4012 160° South  Level Estimated
05:10AM 35.2434 127.4342 160° South  Level Estimated
05:11AM 35.1702 127.4672 160° South  Level Estimated
05:12AM 35.0971 127.5001 160° South  Level Estimated
05:13AM 35.0240 127.5329 160° South  Level Estimated
05:14AM 34.9509 127.5657 160° South  Level Estimated
05:15AM 34.8777 127.5984 160° South  Level Estimated
05:16AM 34.8398 127.6153 160° South  Level Estimated
05:17AM 34.8398 127.6153 180° South  Level Estimated
05:18AM 34.8398 127.6153 180° South  Level Estimated
05:19AM 34.8398 127.6153 180° South  Level Estimated
05:20AM 34.8398 127.6153 180° South  Level Estimated
05:21AM 34.8398 127.6153 180° South  Level Estimated